sensor_id;sensor_type;location;lat;lon;timestamp;P1;durP1;ratioP1;P2;durP2;ratioP2
75358;SDS011;64046;51.978;5.934;2023-08-17T00:02:31;3.55;;;1.80;;
75358;SDS011;64046;51.978;5.934;2023-08-17T00:05:05;4.43;;;1.63;;
75358;SDS011;64046;51.978;5.934;2023-08-17T00:07:36;3.88;;;1.80;;
75358;SDS011;64046;51.978;5.934;2023-08-17T00:10:06;6.20;;;2.00;;
75358;SDS011;64046;51.978;5.934;2023-08-17T00:12:37;5.07;;;1.75;;
75358;SDS011;64046;51.978;5.934;2023-08-17T00:15:10;3.70;;;1.83;;
75358;SDS011;64046;51.978;5.934;2023-08-17T00:17:42;3.28;;;1.70;;
75358;SDS011;64046;51.978;5.934;2023-08-17T00:20:14;5.45;;;1.60;;
75358;SDS011;64046;51.978;5.934;2023-08-17T00:22:45;2.35;;;1.52;;
75358;SDS011;64046;51.978;5.934;2023-08-17T00:25:14;5.22;;;1.95;;
75358;SDS011;64046;51.978;5.934;2023-08-17T00:27:44;4.93;;;1.83;;
75358;SDS011;64046;51.978;5.934;2023-08-17T00:30:19;3.85;;;1.38;;
75358;SDS011;64046;51.978;5.934;2023-08-17T00:32:55;4.70;;;1.67;;
75358;SDS011;64046;51.978;5.934;2023-08-17T00:35:26;2.25;;;1.60;;
75358;SDS011;64046;51.978;5.934;2023-08-17T00:37:57;7.53;;;2.05;;
75358;SDS011;64046;51.978;5.934;2023-08-17T00:40:28;4.55;;;1.55;;
75358;SDS011;64046;51.978;5.934;2023-08-17T00:42:58;3.13;;;1.60;;
75358;SDS011;64046;51.978;5.934;2023-08-17T00:45:30;6.03;;;1.70;;
75358;SDS011;64046;51.978;5.934;2023-08-17T00:48:00;4.22;;;1.67;;
75358;SDS011;64046;51.978;5.934;2023-08-17T00:50:33;5.15;;;1.75;;
75358;SDS011;64046;51.978;5.934;2023-08-17T00:53:04;3.80;;;1.77;;
75358;SDS011;64046;51.978;5.934;2023-08-17T00:55:39;4.40;;;1.80;;
75358;SDS011;64046;51.978;5.934;2023-08-17T00:58:08;4.43;;;1.83;;
75358;SDS011;64046;51.978;5.934;2023-08-17T01:00:43;8.80;;;2.10;;
75358;SDS011;64046;51.978;5.934;2023-08-17T01:03:13;3.58;;;1.77;;
75358;SDS011;64046;51.978;5.934;2023-08-17T01:05:46;2.22;;;1.40;;
75358;SDS011;64046;51.978;5.934;2023-08-17T01:08:17;4.00;;;1.65;;
75358;SDS011;64046;51.978;5.934;2023-08-17T01:10:51;6.63;;;1.75;;
75358;SDS011;64046;51.978;5.934;2023-08-17T01:13:30;4.05;;;1.50;;
75358;SDS011;64046;51.978;5.934;2023-08-17T01:16:06;2.97;;;1.33;;
75358;SDS011;64046;51.978;5.934;2023-08-17T01:18:45;4.40;;;1.90;;
75358;SDS011;64046;51.978;5.934;2023-08-17T01:21:17;3.10;;;1.70;;
75358;SDS011;64046;51.978;5.934;2023-08-17T01:23:57;6.88;;;1.80;;
75358;SDS011;64046;51.978;5.934;2023-08-17T01:26:29;4.88;;;1.80;;
75358;SDS011;64046;51.978;5.934;2023-08-17T01:29:01;6.90;;;1.70;;
75358;SDS011;64046;51.978;5.934;2023-08-17T01:31:32;6.63;;;2.10;;
75358;SDS011;64046;51.978;5.934;2023-08-17T01:34:07;6.82;;;1.80;;
75358;SDS011;64046;51.978;5.934;2023-08-17T01:36:45;5.70;;;1.73;;
75358;SDS011;64046;51.978;5.934;2023-08-17T01:39:24;6.18;;;1.88;;
75358;SDS011;64046;51.978;5.934;2023-08-17T01:41:58;4.40;;;2.10;;
75358;SDS011;64046;51.978;5.934;2023-08-17T01:44:30;4.88;;;1.73;;
75358;SDS011;64046;51.978;5.934;2023-08-17T01:47:00;4.50;;;2.50;;
75358;SDS011;64046;51.978;5.934;2023-08-17T01:49:29;2.63;;;1.63;;
75358;SDS011;64046;51.978;5.934;2023-08-17T01:51:59;6.78;;;2.30;;
75358;SDS011;64046;51.978;5.934;2023-08-17T01:54:39;6.40;;;2.20;;
75358;SDS011;64046;51.978;5.934;2023-08-17T01:57:10;4.03;;;2.03;;
75358;SDS011;64046;51.978;5.934;2023-08-17T01:59:40;6.22;;;2.40;;
75358;SDS011;64046;51.978;5.934;2023-08-17T02:02:10;6.03;;;1.88;;
75358;SDS011;64046;51.978;5.934;2023-08-17T02:04:40;4.15;;;2.08;;
75358;SDS011;64046;51.978;5.934;2023-08-17T02:07:10;8.68;;;2.60;;
75358;SDS011;64046;51.978;5.934;2023-08-17T02:09:42;9.27;;;2.08;;
75358;SDS011;64046;51.978;5.934;2023-08-17T02:12:12;5.57;;;1.85;;
75358;SDS011;64046;51.978;5.934;2023-08-17T02:14:42;6.05;;;2.33;;
75358;SDS011;64046;51.978;5.934;2023-08-17T02:17:12;4.70;;;1.80;;
75358;SDS011;64046;51.978;5.934;2023-08-17T02:19:42;4.90;;;2.22;;
75358;SDS011;64046;51.978;5.934;2023-08-17T02:22:14;6.85;;;2.17;;
75358;SDS011;64046;51.978;5.934;2023-08-17T02:24:46;7.57;;;2.55;;
75358;SDS011;64046;51.978;5.934;2023-08-17T02:27:16;5.35;;;2.22;;
75358;SDS011;64046;51.978;5.934;2023-08-17T02:29:46;5.60;;;2.25;;
75358;SDS011;64046;51.978;5.934;2023-08-17T02:32:16;5.47;;;2.08;;
75358;SDS011;64046;51.978;5.934;2023-08-17T02:34:50;4.45;;;2.20;;
75358;SDS011;64046;51.978;5.934;2023-08-17T02:37:21;5.45;;;2.00;;
75358;SDS011;64046;51.978;5.934;2023-08-17T02:39:56;5.78;;;2.42;;
75358;SDS011;64046;51.978;5.934;2023-08-17T02:42:30;5.93;;;2.55;;
75358;SDS011;64046;51.978;5.934;2023-08-17T02:45:02;5.68;;;2.15;;
75358;SDS011;64046;51.978;5.934;2023-08-17T02:47:32;4.53;;;2.20;;
75358;SDS011;64046;51.978;5.934;2023-08-17T02:50:03;8.63;;;2.03;;
75358;SDS011;64046;51.978;5.934;2023-08-17T02:52:33;7.68;;;2.00;;
75358;SDS011;64046;51.978;5.934;2023-08-17T02:55:06;6.18;;;2.20;;
75358;SDS011;64046;51.978;5.934;2023-08-17T02:57:36;8.90;;;1.90;;
75358;SDS011;64046;51.978;5.934;2023-08-17T03:00:06;5.53;;;1.70;;
75358;SDS011;64046;51.978;5.934;2023-08-17T03:02:36;5.68;;;2.20;;
75358;SDS011;64046;51.978;5.934;2023-08-17T03:05:06;5.32;;;1.80;;
75358;SDS011;64046;51.978;5.934;2023-08-17T03:07:39;5.40;;;1.88;;
75358;SDS011;64046;51.978;5.934;2023-08-17T03:10:10;4.03;;;1.80;;
75358;SDS011;64046;51.978;5.934;2023-08-17T03:12:40;6.32;;;1.90;;
75358;SDS011;64046;51.978;5.934;2023-08-17T03:15:16;5.35;;;2.00;;
75358;SDS011;64046;51.978;5.934;2023-08-17T03:17:48;9.88;;;2.22;;
75358;SDS011;64046;51.978;5.934;2023-08-17T03:20:17;5.75;;;2.20;;
75358;SDS011;64046;51.978;5.934;2023-08-17T03:22:47;5.60;;;1.95;;
75358;SDS011;64046;51.978;5.934;2023-08-17T03:25:20;6.18;;;2.58;;
75358;SDS011;64046;51.978;5.934;2023-08-17T03:27:49;9.40;;;2.65;;
75358;SDS011;64046;51.978;5.934;2023-08-17T03:30:21;6.28;;;2.10;;
75358;SDS011;64046;51.978;5.934;2023-08-17T03:32:50;5.70;;;2.20;;
75358;SDS011;64046;51.978;5.934;2023-08-17T03:35:21;6.55;;;2.05;;
75358;SDS011;64046;51.978;5.934;2023-08-17T03:37:54;5.70;;;2.25;;
75358;SDS011;64046;51.978;5.934;2023-08-17T03:40:26;5.78;;;2.20;;
75358;SDS011;64046;51.978;5.934;2023-08-17T03:42:57;5.82;;;2.10;;
75358;SDS011;64046;51.978;5.934;2023-08-17T03:45:27;8.85;;;2.38;;
75358;SDS011;64046;51.978;5.934;2023-08-17T03:47:57;9.05;;;2.28;;
75358;SDS011;64046;51.978;5.934;2023-08-17T03:50:30;6.75;;;2.38;;
75358;SDS011;64046;51.978;5.934;2023-08-17T03:53:01;7.45;;;2.22;;
75358;SDS011;64046;51.978;5.934;2023-08-17T03:55:34;5.75;;;2.70;;
75358;SDS011;64046;51.978;5.934;2023-08-17T03:58:04;4.20;;;2.25;;
75358;SDS011;64046;51.978;5.934;2023-08-17T04:00:33;7.93;;;2.45;;
75358;SDS011;64046;51.978;5.934;2023-08-17T04:03:04;5.35;;;2.42;;
75358;SDS011;64046;51.978;5.934;2023-08-17T04:05:33;7.35;;;2.63;;
75358;SDS011;64046;51.978;5.934;2023-08-17T04:08:04;5.28;;;2.05;;
75358;SDS011;64046;51.978;5.934;2023-08-17T04:10:38;7.28;;;2.50;;
75358;SDS011;64046;51.978;5.934;2023-08-17T04:13:08;4.43;;;2.60;;
75358;SDS011;64046;51.978;5.934;2023-08-17T04:15:37;6.35;;;2.00;;
75358;SDS011;64046;51.978;5.934;2023-08-17T04:18:13;11.02;;;3.22;;
75358;SDS011;64046;51.978;5.934;2023-08-17T04:20:42;9.90;;;2.20;;
75358;SDS011;64046;51.978;5.934;2023-08-17T04:23:14;9.80;;;2.45;;
75358;SDS011;64046;51.978;5.934;2023-08-17T04:25:46;2.47;;;1.58;;
75358;SDS011;64046;51.978;5.934;2023-08-17T04:28:17;7.28;;;2.30;;
75358;SDS011;64046;51.978;5.934;2023-08-17T04:30:46;5.05;;;2.17;;
75358;SDS011;64046;51.978;5.934;2023-08-17T04:33:17;3.95;;;2.17;;
75358;SDS011;64046;51.978;5.934;2023-08-17T04:35:49;4.55;;;1.67;;
75358;SDS011;64046;51.978;5.934;2023-08-17T04:38:19;9.32;;;2.13;;
75358;SDS011;64046;51.978;5.934;2023-08-17T04:40:51;3.20;;;1.88;;
75358;SDS011;64046;51.978;5.934;2023-08-17T04:43:21;6.90;;;2.20;;
75358;SDS011;64046;51.978;5.934;2023-08-17T04:45:50;5.75;;;1.60;;
75358;SDS011;64046;51.978;5.934;2023-08-17T04:48:20;5.18;;;2.08;;
75358;SDS011;64046;51.978;5.934;2023-08-17T04:50:50;5.90;;;2.13;;
75358;SDS011;64046;51.978;5.934;2023-08-17T04:53:21;8.63;;;2.15;;
75358;SDS011;64046;51.978;5.934;2023-08-17T04:55:55;6.32;;;1.95;;
75358;SDS011;64046;51.978;5.934;2023-08-17T04:58:26;4.35;;;2.45;;
75358;SDS011;64046;51.978;5.934;2023-08-17T05:00:57;9.80;;;2.90;;
75358;SDS011;64046;51.978;5.934;2023-08-17T05:03:31;6.28;;;2.00;;
75358;SDS011;64046;51.978;5.934;2023-08-17T05:06:03;6.15;;;2.22;;
75358;SDS011;64046;51.978;5.934;2023-08-17T05:08:33;5.40;;;2.10;;
75358;SDS011;64046;51.978;5.934;2023-08-17T05:11:05;3.58;;;1.95;;
75358;SDS011;64046;51.978;5.934;2023-08-17T05:13:38;6.63;;;2.20;;
75358;SDS011;64046;51.978;5.934;2023-08-17T05:16:10;3.67;;;2.35;;
75358;SDS011;64046;51.978;5.934;2023-08-17T05:18:44;6.28;;;2.30;;
75358;SDS011;64046;51.978;5.934;2023-08-17T05:21:21;7.82;;;2.40;;
75358;SDS011;64046;51.978;5.934;2023-08-17T05:23:51;10.88;;;4.63;;
75358;SDS011;64046;51.978;5.934;2023-08-17T05:26:32;6.55;;;2.85;;
75358;SDS011;64046;51.978;5.934;2023-08-17T05:29:02;9.77;;;2.70;;
75358;SDS011;64046;51.978;5.934;2023-08-17T05:31:32;8.98;;;2.40;;
75358;SDS011;64046;51.978;5.934;2023-08-17T05:34:03;4.90;;;2.33;;
75358;SDS011;64046;51.978;5.934;2023-08-17T05:36:35;4.82;;;2.13;;
75358;SDS011;64046;51.978;5.934;2023-08-17T05:39:08;4.40;;;1.60;;
75358;SDS011;64046;51.978;5.934;2023-08-17T05:41:41;7.97;;;2.10;;
75358;SDS011;64046;51.978;5.934;2023-08-17T05:44:11;4.95;;;2.03;;
75358;SDS011;64046;51.978;5.934;2023-08-17T05:46:41;5.47;;;1.83;;
75358;SDS011;64046;51.978;5.934;2023-08-17T05:49:14;9.13;;;2.10;;
75358;SDS011;64046;51.978;5.934;2023-08-17T05:51:44;4.53;;;2.00;;
75358;SDS011;64046;51.978;5.934;2023-08-17T05:54:20;3.30;;;1.77;;
75358;SDS011;64046;51.978;5.934;2023-08-17T05:56:54;4.78;;;1.90;;
75358;SDS011;64046;51.978;5.934;2023-08-17T05:59:23;4.53;;;1.70;;
75358;SDS011;64046;51.978;5.934;2023-08-17T06:01:58;5.55;;;2.10;;
75358;SDS011;64046;51.978;5.934;2023-08-17T06:04:27;4.53;;;2.35;;
75358;SDS011;64046;51.978;5.934;2023-08-17T06:06:58;8.10;;;2.20;;
75358;SDS011;64046;51.978;5.934;2023-08-17T06:09:31;3.47;;;1.73;;
75358;SDS011;64046;51.978;5.934;2023-08-17T06:12:04;5.10;;;2.17;;
75358;SDS011;64046;51.978;5.934;2023-08-17T06:14:34;3.70;;;1.73;;
75358;SDS011;64046;51.978;5.934;2023-08-17T06:17:06;5.97;;;2.08;;
75358;SDS011;64046;51.978;5.934;2023-08-17T06:19:40;6.32;;;1.83;;
75358;SDS011;64046;51.978;5.934;2023-08-17T06:22:10;9.80;;;2.30;;
75358;SDS011;64046;51.978;5.934;2023-08-17T06:24:39;5.50;;;1.90;;
75358;SDS011;64046;51.978;5.934;2023-08-17T06:27:13;5.65;;;1.80;;
75358;SDS011;64046;51.978;5.934;2023-08-17T06:29:45;7.15;;;1.90;;
75358;SDS011;64046;51.978;5.934;2023-08-17T06:32:14;3.35;;;1.70;;
75358;SDS011;64046;51.978;5.934;2023-08-17T06:34:46;5.55;;;2.22;;
75358;SDS011;64046;51.978;5.934;2023-08-17T06:37:16;6.15;;;2.53;;
75358;SDS011;64046;51.978;5.934;2023-08-17T06:39:48;8.07;;;2.03;;
75358;SDS011;64046;51.978;5.934;2023-08-17T06:42:21;7.80;;;1.80;;
75358;SDS011;64046;51.978;5.934;2023-08-17T06:44:51;5.05;;;1.90;;
75358;SDS011;64046;51.978;5.934;2023-08-17T06:47:23;5.80;;;2.15;;
75358;SDS011;64046;51.978;5.934;2023-08-17T06:49:52;6.57;;;1.75;;
75358;SDS011;64046;51.978;5.934;2023-08-17T06:52:23;4.45;;;1.80;;
75358;SDS011;64046;51.978;5.934;2023-08-17T06:54:55;9.15;;;1.77;;
75358;SDS011;64046;51.978;5.934;2023-08-17T06:57:28;2.65;;;1.60;;
75358;SDS011;64046;51.978;5.934;2023-08-17T06:59:59;3.88;;;1.88;;
75358;SDS011;64046;51.978;5.934;2023-08-17T07:02:33;9.07;;;2.33;;
75358;SDS011;64046;51.978;5.934;2023-08-17T07:05:03;7.57;;;2.10;;
75358;SDS011;64046;51.978;5.934;2023-08-17T07:07:34;8.43;;;2.22;;
75358;SDS011;64046;51.978;5.934;2023-08-17T07:10:05;6.38;;;1.77;;
75358;SDS011;64046;51.978;5.934;2023-08-17T07:12:39;4.78;;;1.95;;
75358;SDS011;64046;51.978;5.934;2023-08-17T07:15:20;7.80;;;2.13;;
75358;SDS011;64046;51.978;5.934;2023-08-17T07:17:50;4.78;;;1.35;;
75358;SDS011;64046;51.978;5.934;2023-08-17T07:20:19;7.25;;;2.08;;
75358;SDS011;64046;51.978;5.934;2023-08-17T07:22:48;4.78;;;1.73;;
75358;SDS011;64046;51.978;5.934;2023-08-17T07:25:18;4.88;;;2.10;;
75358;SDS011;64046;51.978;5.934;2023-08-17T07:27:51;4.70;;;2.00;;
75358;SDS011;64046;51.978;5.934;2023-08-17T07:30:22;4.28;;;1.88;;
75358;SDS011;64046;51.978;5.934;2023-08-17T07:32:54;4.95;;;2.10;;
75358;SDS011;64046;51.978;5.934;2023-08-17T07:35:27;5.03;;;1.80;;
75358;SDS011;64046;51.978;5.934;2023-08-17T07:38:00;8.68;;;2.28;;
75358;SDS011;64046;51.978;5.934;2023-08-17T07:40:30;3.80;;;1.70;;
75358;SDS011;64046;51.978;5.934;2023-08-17T07:43:02;5.70;;;1.60;;
75358;SDS011;64046;51.978;5.934;2023-08-17T07:45:35;3.63;;;1.90;;
75358;SDS011;64046;51.978;5.934;2023-08-17T07:48:06;6.05;;;2.15;;
75358;SDS011;64046;51.978;5.934;2023-08-17T07:50:35;6.97;;;2.30;;
75358;SDS011;64046;51.978;5.934;2023-08-17T07:53:05;4.65;;;2.10;;
75358;SDS011;64046;51.978;5.934;2023-08-17T07:55:35;8.65;;;2.72;;
75358;SDS011;64046;51.978;5.934;2023-08-17T07:58:07;4.28;;;2.22;;
75358;SDS011;64046;51.978;5.934;2023-08-17T08:00:36;5.63;;;2.30;;
75358;SDS011;64046;51.978;5.934;2023-08-17T08:03:06;6.50;;;2.13;;
75358;SDS011;64046;51.978;5.934;2023-08-17T08:05:38;4.65;;;2.30;;
75358;SDS011;64046;51.978;5.934;2023-08-17T08:08:12;8.50;;;2.63;;
75358;SDS011;64046;51.978;5.934;2023-08-17T08:10:43;7.47;;;2.85;;
75358;SDS011;64046;51.978;5.934;2023-08-17T08:13:25;7.78;;;2.67;;
75358;SDS011;64046;51.978;5.934;2023-08-17T08:15:54;4.20;;;2.13;;
75358;SDS011;64046;51.978;5.934;2023-08-17T08:18:25;3.63;;;2.10;;
75358;SDS011;64046;51.978;5.934;2023-08-17T08:20:54;5.80;;;2.40;;
75358;SDS011;64046;51.978;5.934;2023-08-17T08:23:24;6.13;;;1.92;;
75358;SDS011;64046;51.978;5.934;2023-08-17T08:25:57;6.28;;;1.98;;
75358;SDS011;64046;51.978;5.934;2023-08-17T08:28:29;5.07;;;2.47;;
75358;SDS011;64046;51.978;5.934;2023-08-17T08:31:04;5.10;;;2.42;;
75358;SDS011;64046;51.978;5.934;2023-08-17T08:33:37;7.88;;;1.95;;
75358;SDS011;64046;51.978;5.934;2023-08-17T08:36:06;4.70;;;2.33;;
75358;SDS011;64046;51.978;5.934;2023-08-17T08:38:35;7.30;;;2.80;;
75358;SDS011;64046;51.978;5.934;2023-08-17T08:41:05;5.28;;;2.60;;
75358;SDS011;64046;51.978;5.934;2023-08-17T08:43:42;4.47;;;1.77;;
75358;SDS011;64046;51.978;5.934;2023-08-17T08:46:13;5.47;;;2.40;;
75358;SDS011;64046;51.978;5.934;2023-08-17T08:48:47;7.07;;;2.53;;
75358;SDS011;64046;51.978;5.934;2023-08-17T08:51:35;6.82;;;2.67;;
75358;SDS011;64046;51.978;5.934;2023-08-17T08:54:12;7.63;;;2.35;;
75358;SDS011;64046;51.978;5.934;2023-08-17T08:56:43;6.50;;;2.50;;
75358;SDS011;64046;51.978;5.934;2023-08-17T08:59:19;9.73;;;2.83;;
75358;SDS011;64046;51.978;5.934;2023-08-17T09:01:56;5.22;;;2.28;;
75358;SDS011;64046;51.978;5.934;2023-08-17T09:04:29;7.32;;;2.72;;
75358;SDS011;64046;51.978;5.934;2023-08-17T09:07:00;7.43;;;2.70;;
75358;SDS011;64046;51.978;5.934;2023-08-17T09:09:37;5.53;;;3.03;;
75358;SDS011;64046;51.978;5.934;2023-08-17T09:12:07;8.50;;;3.17;;
75358;SDS011;64046;51.978;5.934;2023-08-17T09:14:42;8.70;;;3.22;;
75358;SDS011;64046;51.978;5.934;2023-08-17T09:17:11;7.10;;;3.25;;
75358;SDS011;64046;51.978;5.934;2023-08-17T09:19:47;6.07;;;2.95;;
75358;SDS011;64046;51.978;5.934;2023-08-17T09:22:22;8.32;;;2.88;;
75358;SDS011;64046;51.978;5.934;2023-08-17T09:24:53;8.55;;;3.92;;
75358;SDS011;64046;51.978;5.934;2023-08-17T09:27:27;7.90;;;3.85;;
75358;SDS011;64046;51.978;5.934;2023-08-17T09:30:05;4.97;;;2.83;;
75358;SDS011;64046;51.978;5.934;2023-08-17T09:32:36;7.88;;;3.65;;
75358;SDS011;64046;51.978;5.934;2023-08-17T09:35:06;9.93;;;3.80;;
75358;SDS011;64046;51.978;5.934;2023-08-17T09:37:39;7.90;;;3.90;;
75358;SDS011;64046;51.978;5.934;2023-08-17T09:40:11;10.57;;;3.88;;
75358;SDS011;64046;51.978;5.934;2023-08-17T09:42:41;8.45;;;3.67;;
75358;SDS011;64046;51.978;5.934;2023-08-17T09:45:15;8.52;;;4.25;;
75358;SDS011;64046;51.978;5.934;2023-08-17T09:47:47;6.32;;;3.03;;
75358;SDS011;64046;51.978;5.934;2023-08-17T09:50:21;8.75;;;3.92;;
75358;SDS011;64046;51.978;5.934;2023-08-17T09:52:54;7.65;;;3.13;;
75358;SDS011;64046;51.978;5.934;2023-08-17T09:55:27;8.65;;;4.35;;
75358;SDS011;64046;51.978;5.934;2023-08-17T09:58:02;12.82;;;4.75;;
75358;SDS011;64046;51.978;5.934;2023-08-17T10:00:34;8.43;;;3.83;;
75358;SDS011;64046;51.978;5.934;2023-08-17T10:03:04;7.82;;;3.55;;
75358;SDS011;64046;51.978;5.934;2023-08-17T10:05:38;11.88;;;4.25;;
75358;SDS011;64046;51.978;5.934;2023-08-17T10:08:10;7.88;;;3.88;;
75358;SDS011;64046;51.978;5.934;2023-08-17T10:10:43;9.75;;;4.60;;
75358;SDS011;64046;51.978;5.934;2023-08-17T10:13:16;7.18;;;3.05;;
75358;SDS011;64046;51.978;5.934;2023-08-17T10:15:57;8.48;;;4.25;;
75358;SDS011;64046;51.978;5.934;2023-08-17T10:18:41;9.55;;;4.20;;
75358;SDS011;64046;51.978;5.934;2023-08-17T10:21:20;12.57;;;4.65;;
75358;SDS011;64046;51.978;5.934;2023-08-17T10:23:55;10.75;;;4.35;;
75358;SDS011;64046;51.978;5.934;2023-08-17T10:26:27;6.82;;;3.83;;
75358;SDS011;64046;51.978;5.934;2023-08-17T10:28:58;10.55;;;3.88;;
75358;SDS011;64046;51.978;5.934;2023-08-17T10:31:34;9.40;;;4.32;;
75358;SDS011;64046;51.978;5.934;2023-08-17T10:34:05;13.50;;;4.15;;
75358;SDS011;64046;51.978;5.934;2023-08-17T10:36:36;10.75;;;4.30;;
75358;SDS011;64046;51.978;5.934;2023-08-17T10:41:51;7.25;;;3.60;;
75358;SDS011;64046;51.978;5.934;2023-08-17T10:47:24;7.95;;;4.22;;
75358;SDS011;64046;51.978;5.934;2023-08-17T10:49:58;7.80;;;4.00;;
75358;SDS011;64046;51.978;5.934;2023-08-17T10:52:31;14.68;;;5.10;;
75358;SDS011;64046;51.978;5.934;2023-08-17T10:55:04;6.80;;;3.75;;
75358;SDS011;64046;51.978;5.934;2023-08-17T10:57:36;9.45;;;3.90;;
75358;SDS011;64046;51.978;5.934;2023-08-17T11:00:15;8.55;;;3.47;;
75358;SDS011;64046;51.978;5.934;2023-08-17T11:02:56;9.20;;;3.63;;
75358;SDS011;64046;51.978;5.934;2023-08-17T11:05:36;6.43;;;3.58;;
75358;SDS011;64046;51.978;5.934;2023-08-17T11:08:19;9.77;;;4.20;;
75358;SDS011;64046;51.978;5.934;2023-08-17T11:10:58;8.57;;;4.00;;
75358;SDS011;64046;51.978;5.934;2023-08-17T11:13:35;8.02;;;3.65;;
75358;SDS011;64046;51.978;5.934;2023-08-17T11:16:09;9.40;;;4.57;;
75358;SDS011;64046;51.978;5.934;2023-08-17T11:18:47;8.50;;;4.05;;
75358;SDS011;64046;51.978;5.934;2023-08-17T11:21:17;11.65;;;5.03;;
75358;SDS011;64046;51.978;5.934;2023-08-17T11:23:57;10.45;;;4.75;;
75358;SDS011;64046;51.978;5.934;2023-08-17T11:26:28;8.88;;;4.60;;
75358;SDS011;64046;51.978;5.934;2023-08-17T11:28:57;6.15;;;3.60;;
75358;SDS011;64046;51.978;5.934;2023-08-17T11:31:29;7.13;;;3.38;;
75358;SDS011;64046;51.978;5.934;2023-08-17T11:34:03;6.57;;;3.90;;
75358;SDS011;64046;51.978;5.934;2023-08-17T11:36:42;6.40;;;3.50;;
75358;SDS011;64046;51.978;5.934;2023-08-17T11:39:12;8.63;;;3.95;;
75358;SDS011;64046;51.978;5.934;2023-08-17T11:41:42;5.90;;;3.42;;
75358;SDS011;64046;51.978;5.934;2023-08-17T11:44:13;6.95;;;3.97;;
75358;SDS011;64046;51.978;5.934;2023-08-17T11:46:43;10.65;;;4.43;;
75358;SDS011;64046;51.978;5.934;2023-08-17T11:49:16;7.28;;;4.07;;
75358;SDS011;64046;51.978;5.934;2023-08-17T11:51:46;10.85;;;4.28;;
75358;SDS011;64046;51.978;5.934;2023-08-17T11:54:16;9.18;;;4.32;;
75358;SDS011;64046;51.978;5.934;2023-08-17T11:56:49;8.40;;;3.92;;
75358;SDS011;64046;51.978;5.934;2023-08-17T11:59:21;6.85;;;3.70;;
75358;SDS011;64046;51.978;5.934;2023-08-17T12:01:52;8.93;;;3.40;;
75358;SDS011;64046;51.978;5.934;2023-08-17T12:04:28;5.28;;;3.20;;
75358;SDS011;64046;51.978;5.934;2023-08-17T12:07:00;5.63;;;3.65;;
75358;SDS011;64046;51.978;5.934;2023-08-17T12:09:31;5.82;;;3.38;;
75358;SDS011;64046;51.978;5.934;2023-08-17T12:12:05;7.95;;;3.83;;
75358;SDS011;64046;51.978;5.934;2023-08-17T12:14:35;6.50;;;3.47;;
75358;SDS011;64046;51.978;5.934;2023-08-17T12:17:04;7.82;;;4.28;;
75358;SDS011;64046;51.978;5.934;2023-08-17T12:19:38;8.80;;;5.07;;
75358;SDS011;64046;51.978;5.934;2023-08-17T12:22:11;8.57;;;4.60;;
75358;SDS011;64046;51.978;5.934;2023-08-17T12:24:45;11.98;;;4.30;;
75358;SDS011;64046;51.978;5.934;2023-08-17T12:27:17;6.78;;;3.65;;
75358;SDS011;64046;51.978;5.934;2023-08-17T12:29:48;7.05;;;3.90;;
75358;SDS011;64046;51.978;5.934;2023-08-17T12:32:19;9.80;;;5.45;;
75358;SDS011;64046;51.978;5.934;2023-08-17T12:34:54;8.27;;;4.32;;
75358;SDS011;64046;51.978;5.934;2023-08-17T12:37:24;9.65;;;4.55;;
75358;SDS011;64046;51.978;5.934;2023-08-17T12:39:56;9.35;;;4.85;;
75358;SDS011;64046;51.978;5.934;2023-08-17T12:42:30;8.50;;;4.35;;
75358;SDS011;64046;51.978;5.934;2023-08-17T12:45:04;6.93;;;3.83;;
75358;SDS011;64046;51.978;5.934;2023-08-17T12:47:34;7.53;;;3.78;;
75358;SDS011;64046;51.978;5.934;2023-08-17T12:50:08;7.63;;;3.85;;
75358;SDS011;64046;51.978;5.934;2023-08-17T12:52:39;5.82;;;3.47;;
75358;SDS011;64046;51.978;5.934;2023-08-17T12:55:12;7.10;;;4.05;;
75358;SDS011;64046;51.978;5.934;2023-08-17T12:57:41;11.15;;;5.30;;
75358;SDS011;64046;51.978;5.934;2023-08-17T13:00:17;13.07;;;4.65;;
75358;SDS011;64046;51.978;5.934;2023-08-17T13:02:50;10.60;;;4.47;;
75358;SDS011;64046;51.978;5.934;2023-08-17T13:05:24;8.48;;;4.60;;
75358;SDS011;64046;51.978;5.934;2023-08-17T13:07:53;10.07;;;3.53;;
75358;SDS011;64046;51.978;5.934;2023-08-17T13:10:24;7.38;;;4.60;;
75358;SDS011;64046;51.978;5.934;2023-08-17T13:12:58;9.02;;;4.40;;
75358;SDS011;64046;51.978;5.934;2023-08-17T13:15:27;8.23;;;4.07;;
75358;SDS011;64046;51.978;5.934;2023-08-17T13:17:59;6.88;;;4.32;;
75358;SDS011;64046;51.978;5.934;2023-08-17T13:20:31;8.20;;;5.45;;
75358;SDS011;64046;51.978;5.934;2023-08-17T13:23:04;6.75;;;3.63;;
75358;SDS011;64046;51.978;5.934;2023-08-17T13:25:33;7.30;;;4.80;;
75358;SDS011;64046;51.978;5.934;2023-08-17T13:28:06;11.30;;;6.05;;
75358;SDS011;64046;51.978;5.934;2023-08-17T13:30:37;9.35;;;5.15;;
75358;SDS011;64046;51.978;5.934;2023-08-17T13:33:07;8.13;;;4.40;;
75358;SDS011;64046;51.978;5.934;2023-08-17T13:35:40;7.35;;;4.70;;
75358;SDS011;64046;51.978;5.934;2023-08-17T13:38:09;10.60;;;4.65;;
75358;SDS011;64046;51.978;5.934;2023-08-17T13:40:39;7.95;;;4.40;;
75358;SDS011;64046;51.978;5.934;2023-08-17T13:43:09;9.38;;;5.43;;
75358;SDS011;64046;51.978;5.934;2023-08-17T13:45:40;6.35;;;4.53;;
75358;SDS011;64046;51.978;5.934;2023-08-17T13:48:10;10.13;;;5.25;;
75358;SDS011;64046;51.978;5.934;2023-08-17T13:50:45;8.27;;;4.40;;
75358;SDS011;64046;51.978;5.934;2023-08-17T13:53:16;6.90;;;3.67;;
75358;SDS011;64046;51.978;5.934;2023-08-17T13:55:47;8.68;;;4.65;;
75358;SDS011;64046;51.978;5.934;2023-08-17T13:58:21;7.30;;;4.28;;
75358;SDS011;64046;51.978;5.934;2023-08-17T14:00:51;7.88;;;4.30;;
75358;SDS011;64046;51.978;5.934;2023-08-17T14:03:20;7.95;;;4.30;;
75358;SDS011;64046;51.978;5.934;2023-08-17T14:05:55;6.35;;;4.35;;
75358;SDS011;64046;51.978;5.934;2023-08-17T14:08:24;12.75;;;6.47;;
75358;SDS011;64046;51.978;5.934;2023-08-17T14:10:54;7.95;;;4.82;;
75358;SDS011;64046;51.978;5.934;2023-08-17T14:13:23;7.50;;;4.13;;
75358;SDS011;64046;51.978;5.934;2023-08-17T14:15:55;6.75;;;4.25;;
75358;SDS011;64046;51.978;5.934;2023-08-17T14:18:32;6.88;;;4.63;;
75358;SDS011;64046;51.978;5.934;2023-08-17T14:21:06;9.13;;;5.20;;
75358;SDS011;64046;51.978;5.934;2023-08-17T14:23:37;11.18;;;5.75;;
75358;SDS011;64046;51.978;5.934;2023-08-17T14:26:08;6.97;;;3.90;;
75358;SDS011;64046;51.978;5.934;2023-08-17T14:28:41;8.65;;;5.35;;
75358;SDS011;64046;51.978;5.934;2023-08-17T14:31:11;9.40;;;5.63;;
75358;SDS011;64046;51.978;5.934;2023-08-17T14:33:43;9.27;;;6.07;;
75358;SDS011;64046;51.978;5.934;2023-08-17T14:36:18;9.43;;;5.30;;
75358;SDS011;64046;51.978;5.934;2023-08-17T14:38:49;9.57;;;5.60;;
75358;SDS011;64046;51.978;5.934;2023-08-17T14:41:18;7.60;;;5.18;;
75358;SDS011;64046;51.978;5.934;2023-08-17T14:43:48;10.43;;;6.13;;
75358;SDS011;64046;51.978;5.934;2023-08-17T14:46:24;8.35;;;5.95;;
75358;SDS011;64046;51.978;5.934;2023-08-17T14:48:55;7.60;;;5.97;;
75358;SDS011;64046;51.978;5.934;2023-08-17T14:51:28;7.43;;;5.28;;
75358;SDS011;64046;51.978;5.934;2023-08-17T14:53:57;7.65;;;5.82;;
75358;SDS011;64046;51.978;5.934;2023-08-17T14:56:29;9.70;;;6.25;;
75358;SDS011;64046;51.978;5.934;2023-08-17T14:58:59;6.82;;;5.28;;
75358;SDS011;64046;51.978;5.934;2023-08-17T15:01:30;7.60;;;5.57;;
75358;SDS011;64046;51.978;5.934;2023-08-17T15:04:00;9.70;;;5.90;;
75358;SDS011;64046;51.978;5.934;2023-08-17T15:06:36;14.05;;;7.28;;
75358;SDS011;64046;51.978;5.934;2023-08-17T15:09:05;9.18;;;6.18;;
75358;SDS011;64046;51.978;5.934;2023-08-17T15:11:37;9.50;;;7.55;;
75358;SDS011;64046;51.978;5.934;2023-08-17T15:14:06;6.85;;;5.15;;
75358;SDS011;64046;51.978;5.934;2023-08-17T15:16:38;8.95;;;5.45;;
75358;SDS011;64046;51.978;5.934;2023-08-17T15:19:09;12.48;;;8.40;;
75358;SDS011;64046;51.978;5.934;2023-08-17T15:21:45;10.57;;;7.25;;